createdAt,value
2023-03-12T00:02:25.076Z,30.55
2023-03-12T00:06:24.997Z,37.18
2023-03-12T00:10:24.962Z,28.11
2023-03-12T00:14:24.994Z,30.71
2023-03-12T00:18:24.952Z,26.98
2023-03-12T00:22:24.880Z,32.09
2023-03-12T00:26:24.857Z,39.10
2023-03-12T00:30:24.824Z,36.95
2023-03-12T00:34:24.743Z,35.56
2023-03-12T00:38:24.728Z,25.13
2023-03-12T00:42:24.682Z,31.62
2023-03-12T00:46:24.710Z,32.93
2023-03-12T00:50:24.798Z,31.82
2023-03-12T00:54:25.025Z,33.39
2023-03-12T00:58:25.012Z,30.11
2023-03-12T01:02:24.983Z,30.19
2023-03-12T01:06:24.965Z,25.02
2023-03-12T01:10:24.915Z,29.83
2023-03-12T01:14:24.872Z,31.33
2023-03-12T01:18:24.847Z,29.89
2023-03-12T01:22:24.824Z,30.44
2023-03-12T01:26:24.808Z,34.88
2023-03-12T01:30:24.750Z,36.44
2023-03-12T01:34:24.686Z,32.54
2023-03-12T01:38:24.674Z,35.00
2023-03-12T01:42:24.610Z,30.32
2023-03-12T01:46:24.610Z,33.58
2023-03-12T01:50:24.633Z,36.22
2023-03-12T01:54:24.760Z,33.26
2023-03-12T01:58:24.864Z,33.40
2023-03-12T02:02:25.001Z,33.88
2023-03-12T02:06:25.019Z,34.56
2023-03-12T02:10:25.151Z,33.21
2023-03-12T02:14:25.328Z,36.32
2023-03-12T02:18:25.512Z,33.27
2023-03-12T02:22:25.648Z,39.19
2023-03-12T02:26:25.815Z,38.32
2023-03-12T02:30:26.021Z,34.22
2023-03-12T02:34:25.961Z,35.13
2023-03-12T02:38:25.928Z,37.95
2023-03-12T02:42:25.917Z,26.80
2023-03-12T02:46:25.926Z,32.19
2023-03-12T02:50:25.830Z,30.67
2023-03-12T02:54:25.783Z,30.04
2023-03-12T02:58:25.778Z,32.88
2023-03-12T03:02:25.736Z,31.45
2023-03-12T03:06:25.682Z,37.01
2023-03-12T03:10:25.672Z,31.57
2023-03-12T03:14:25.609Z,31.22
2023-03-12T03:18:25.617Z,31.91
2023-03-12T03:22:25.652Z,32.99
2023-03-12T03:26:25.825Z,32.53
2023-03-12T03:30:25.948Z,48.07
2023-03-12T03:34:26.066Z,52.53
2023-03-12T03:38:26.247Z,46.83
2023-03-12T03:42:26.400Z,31.00
2023-03-12T03:46:26.775Z,36.19
2023-03-12T03:50:26.728Z,32.99
2023-03-12T03:54:26.881Z,29.21
2023-03-12T03:58:26.990Z,32.37
2023-03-12T04:02:27.121Z,31.41
2023-03-12T04:06:27.265Z,35.06
2023-03-12T04:10:27.426Z,36.89
2023-03-12T04:14:27.547Z,37.22
2023-03-12T04:18:27.708Z,25.94
2023-03-12T04:22:27.830Z,33.90
2023-03-12T04:26:27.941Z,25.00
2023-03-12T04:30:28.107Z,29.13
2023-03-12T04:34:28.261Z,34.53
2023-03-12T04:38:28.414Z,33.50
2023-03-12T04:42:28.512Z,30.98
2023-03-12T04:46:28.706Z,36.21
2023-03-12T04:50:28.921Z,38.34
2023-03-12T04:54:29.073Z,34.97
2023-03-12T04:58:29.130Z,37.23
2023-03-12T05:02:29.336Z,43.92
2023-03-12T05:06:29.391Z,39.33
2023-03-12T05:10:29.388Z,39.67
2023-03-12T05:14:29.380Z,38.78
2023-03-12T05:18:29.402Z,37.83
2023-03-12T05:22:29.422Z,42.66
2023-03-12T05:26:29.433Z,51.37
2023-03-12T05:30:29.531Z,46.69
2023-03-12T05:34:29.583Z,44.48
2023-03-12T05:38:29.639Z,44.76
2023-03-12T05:42:29.749Z,38.32
2023-03-12T05:46:29.879Z,38.28
2023-03-12T05:50:29.953Z,33.40
2023-03-12T05:54:29.969Z,39.34
2023-03-12T05:58:30.000Z,42.21
2023-03-12T06:02:30.220Z,31.81
2023-03-12T06:06:30.147Z,37.92
2023-03-12T06:10:30.219Z,34.47
2023-03-12T06:14:30.340Z,36.92
2023-03-12T06:18:30.405Z,45.49
2023-03-12T06:22:30.450Z,48.62
2023-03-12T06:26:30.460Z,44.00
2023-03-12T06:30:30.532Z,51.28
2023-03-12T06:34:30.663Z,52.88
2023-03-12T06:38:30.738Z,52.68
2023-03-12T06:42:30.881Z,51.24
2023-03-12T06:46:31.119Z,51.97
2023-03-12T06:50:31.179Z,59.01
2023-03-12T06:54:31.348Z,51.77
2023-03-12T06:58:31.533Z,53.10
2023-03-12T07:02:31.754Z,55.45
2023-03-12T07:06:31.945Z,60.13
2023-03-12T07:10:32.132Z,55.86
2023-03-12T07:14:32.346Z,50.52
2023-03-12T07:18:32.319Z,56.84
2023-03-12T07:22:32.294Z,58.53
2023-03-12T07:26:32.266Z,61.60
2023-03-12T07:30:32.202Z,50.62
2023-03-12T07:34:32.283Z,52.97
2023-03-12T07:38:32.149Z,52.28
2023-03-12T07:42:32.131Z,51.41
2023-03-12T07:46:32.099Z,50.17
2023-03-12T07:50:32.062Z,62.03
2023-03-12T07:54:32.293Z,57.64
2023-03-12T07:58:32.290Z,66.20
2023-03-12T08:02:32.283Z,89.35
2023-03-12T08:06:32.202Z,76.72
2023-03-12T08:10:32.147Z,93.48
2023-03-12T08:14:32.264Z,90.37
2023-03-12T08:18:32.167Z,95.49
2023-03-12T08:22:32.004Z,110.62
2023-03-12T08:26:31.953Z,98.83
2023-03-12T08:30:31.924Z,110.45
2023-03-12T08:34:31.885Z,102.21
2023-03-12T08:38:31.845Z,106.71
2023-03-12T08:42:31.837Z,111.80
2023-03-12T08:46:31.932Z,110.38
2023-03-12T08:50:32.153Z,115.00
2023-03-12T08:54:32.264Z,124.63
2023-03-12T08:58:32.447Z,124.83
2023-03-12T09:02:32.576Z,115.01
2023-03-12T09:06:32.780Z,128.10
2023-03-12T09:10:32.880Z,122.29
2023-03-12T09:15:01.898Z,114.17
2023-03-12T09:18:34.001Z,120.09
2023-03-12T09:22:32.969Z,113.84
2023-03-12T09:26:32.924Z,120.25
2023-03-12T09:30:32.920Z,115.65
2023-03-12T09:34:32.859Z,106.52
2023-03-12T09:38:33.024Z,111.88
2023-03-12T09:42:33.160Z,103.14
2023-03-12T09:46:33.318Z,94.48
2023-03-12T09:50:33.357Z,83.60
2023-03-12T09:54:33.446Z,102.32
2023-03-12T09:58:33.497Z,120.56
2023-03-12T10:02:33.538Z,155.38
2023-03-12T10:06:33.594Z,157.18
2023-03-12T10:10:33.616Z,155.73
2023-03-12T10:14:33.670Z,153.20
2023-03-12T10:18:33.854Z,150.88
2023-03-12T10:22:33.778Z,136.86
2023-03-12T10:26:34.816Z,121.15
2023-03-12T10:30:33.951Z,152.71
2023-03-12T10:34:33.895Z,141.91
2023-03-12T10:38:33.967Z,138.71
2023-03-12T10:42:34.000Z,135.28
2023-03-12T10:46:34.709Z,139.80
2023-03-12T10:50:34.085Z,137.35
2023-03-12T10:54:34.163Z,149.17
2023-03-12T10:58:34.225Z,152.83
2023-03-12T11:02:34.165Z,155.38
2023-03-12T11:06:34.153Z,155.01
2023-03-12T11:10:34.201Z,135.15
2023-03-12T11:14:34.187Z,159.35
2023-03-12T11:18:34.200Z,151.31
2023-03-12T11:22:34.222Z,154.46
2023-03-12T11:26:34.209Z,144.89
2023-03-12T11:30:34.212Z,169.14
2023-03-12T11:34:34.168Z,172.36
2023-03-12T11:38:34.193Z,161.54
2023-03-12T11:42:34.254Z,175.14
2023-03-12T11:46:34.567Z,188.50
2023-03-12T11:50:34.371Z,183.12
2023-03-12T11:54:34.373Z,177.30
2023-03-12T11:58:34.329Z,175.52
2023-03-12T12:02:34.305Z,174.63
2023-03-12T12:06:34.764Z,174.74
2023-03-12T12:10:34.226Z,182.63
2023-03-12T12:14:34.203Z,176.51
2023-03-12T12:18:34.174Z,173.11
2023-03-12T12:22:34.145Z,174.93
2023-03-12T12:26:34.093Z,179.55
2023-03-12T12:30:34.246Z,181.28
2023-03-12T12:34:34.066Z,177.48
2023-03-12T12:38:34.004Z,181.30
2023-03-12T12:42:33.949Z,178.47
2023-03-12T12:46:33.921Z,173.75
2023-03-12T12:50:33.906Z,168.59
2023-03-12T12:54:33.862Z,172.55
2023-03-12T12:58:33.814Z,173.63
2023-03-12T13:02:33.779Z,170.37
2023-03-12T13:06:33.757Z,170.32
2023-03-12T13:10:33.737Z,170.69
2023-03-12T13:14:33.678Z,170.72
2023-03-12T13:18:33.762Z,173.15
2023-03-12T13:22:33.785Z,168.31
2023-03-12T13:26:33.813Z,165.72
2023-03-12T13:30:33.823Z,164.81
2023-03-12T13:34:33.841Z,169.06
2023-03-12T13:38:33.750Z,157.62
2023-03-12T13:42:33.742Z,144.11
2023-03-12T13:46:33.740Z,135.35
2023-03-12T13:50:33.704Z,127.13
2023-03-12T13:54:33.689Z,101.55
2023-03-12T13:58:33.662Z,102.57
2023-03-12T14:02:33.641Z,96.14
2023-03-12T14:06:33.667Z,98.17
2023-03-12T14:10:33.670Z,95.75
2023-03-12T14:14:33.692Z,98.48
2023-03-12T14:18:33.673Z,96.19
2023-03-12T14:22:33.690Z,97.30
2023-03-12T14:26:33.770Z,99.30
2023-03-12T14:30:33.734Z,94.73
2023-03-12T14:34:33.800Z,108.65
2023-03-12T14:38:33.786Z,93.02
2023-03-12T14:42:33.907Z,107.86
2023-03-12T14:46:33.927Z,104.42
2023-03-12T14:50:33.900Z,112.83
2023-03-12T14:54:33.991Z,127.96
2023-03-12T14:58:34.057Z,127.90
2023-03-12T15:02:34.021Z,137.09
2023-03-12T15:06:34.109Z,122.15
2023-03-12T15:10:34.183Z,124.15
2023-03-12T15:14:34.252Z,106.97
2023-03-12T15:18:34.332Z,115.53
2023-03-12T15:22:34.399Z,102.16
2023-03-12T15:26:34.490Z,87.90
2023-03-12T15:30:34.651Z,74.71
2023-03-12T15:34:34.895Z,58.20
2023-03-12T15:38:34.963Z,49.64
2023-03-12T15:42:35.004Z,52.00
2023-03-12T15:46:35.386Z,47.73
2023-03-12T15:50:35.235Z,45.04
2023-03-12T15:54:35.436Z,48.97
2023-03-12T15:58:35.576Z,32.17
2023-03-12T16:02:35.646Z,33.72
2023-03-12T16:06:35.801Z,32.80
2023-03-12T16:10:35.933Z,33.72
2023-03-12T16:14:36.111Z,46.83
2023-03-12T16:18:36.262Z,57.68
2023-03-12T16:22:36.422Z,56.54
2023-03-12T16:26:36.588Z,53.18
2023-03-12T16:30:36.766Z,55.68
2023-03-12T16:34:36.951Z,46.93
2023-03-12T16:38:37.091Z,48.58
2023-03-12T16:42:37.297Z,47.10
2023-03-12T16:46:37.529Z,41.04
2023-03-12T16:50:37.655Z,29.91
2023-03-12T16:54:37.890Z,35.51
2023-03-12T16:58:38.066Z,29.89
2023-03-12T17:02:38.249Z,24.74
2023-03-12T17:06:38.450Z,32.76
2023-03-12T17:10:38.517Z,34.47
2023-03-12T17:14:38.677Z,36.20
2023-03-12T17:18:39.577Z,41.56
2023-03-12T17:22:39.076Z,41.05
2023-03-12T17:26:39.277Z,41.05
2023-03-12T17:30:39.529Z,44.10
2023-03-12T17:34:39.711Z,49.08
2023-03-12T17:38:39.911Z,46.60
2023-03-12T17:42:39.904Z,51.30
2023-03-12T17:46:47.000Z,48.03
2023-03-12T17:50:40.839Z,49.45
2023-03-12T17:54:39.772Z,38.19
2023-03-12T17:58:39.908Z,38.80
2023-03-12T18:02:40.151Z,37.87
2023-03-12T18:06:40.113Z,37.13
2023-03-12T18:10:40.096Z,38.86
2023-03-12T18:14:40.064Z,35.43
2023-03-12T18:18:40.036Z,32.05
2023-03-12T18:22:39.965Z,35.63
2023-03-12T18:26:39.961Z,37.13
2023-03-12T18:30:39.919Z,30.61
2023-03-12T18:34:39.887Z,29.62
2023-03-12T18:38:39.837Z,42.67
2023-03-12T18:42:39.964Z,46.08
2023-03-12T18:46:39.974Z,52.63
2023-03-12T18:50:39.905Z,48.13
2023-03-12T18:54:39.895Z,47.89
2023-03-12T18:58:39.863Z,40.48
2023-03-12T19:02:39.917Z,34.70
2023-03-12T19:06:50.101Z,30.02
2023-03-12T19:10:40.752Z,26.26
2023-03-12T19:14:39.736Z,31.82
2023-03-12T19:18:39.844Z,31.95
2023-03-12T19:22:39.786Z,28.50
2023-03-12T19:26:39.773Z,32.41
2023-03-12T19:30:39.743Z,32.88
2023-03-12T19:34:39.700Z,35.00
2023-03-12T19:38:39.628Z,34.79
2023-03-12T19:42:39.644Z,39.87
2023-03-12T19:46:39.621Z,38.63
2023-03-12T19:50:39.549Z,34.34
2023-03-12T19:54:39.582Z,27.76
2023-03-12T19:58:39.641Z,38.58
2023-03-12T20:02:39.837Z,35.68
2023-03-12T20:06:39.605Z,34.38
2023-03-12T20:10:39.584Z,26.03
2023-03-12T20:14:42.398Z,35.88
2023-03-12T20:18:39.484Z,33.12
2023-03-12T20:22:39.454Z,34.59
2023-03-12T20:26:39.476Z,34.93
2023-03-12T20:30:39.389Z,35.92
2023-03-12T20:34:39.354Z,37.96
2023-03-12T20:38:39.300Z,32.27
2023-03-12T20:42:39.277Z,27.49
2023-03-12T20:46:39.285Z,25.97
2023-03-12T20:50:39.236Z,27.82
2023-03-12T20:54:39.441Z,25.06
2023-03-12T20:58:39.395Z,27.64
2023-03-12T21:02:39.406Z,29.28
2023-03-12T21:06:39.348Z,35.12
2023-03-12T21:10:39.311Z,29.83
2023-03-12T21:14:39.285Z,30.89
2023-03-12T21:18:39.247Z,29.65
2023-03-12T21:22:39.225Z,31.43
2023-03-12T21:26:39.161Z,28.72
2023-03-12T21:30:39.185Z,32.32
2023-03-12T21:34:39.103Z,26.65
2023-03-12T21:38:39.248Z,28.83
2023-03-12T21:42:39.211Z,36.75
2023-03-12T21:46:39.249Z,45.37
2023-03-12T21:50:39.190Z,46.30
2023-03-12T21:54:39.119Z,44.33
2023-03-12T21:58:39.111Z,35.62
2023-03-12T22:02:39.076Z,35.29
2023-03-12T22:06:39.000Z,34.75
2023-03-12T22:10:38.962Z,35.72
2023-03-12T22:14:38.930Z,31.45
2023-03-12T22:18:38.890Z,36.70
2023-03-12T22:22:38.939Z,34.27
2023-03-12T22:26:39.119Z,28.31
2023-03-12T22:30:39.330Z,29.25
2023-03-12T22:34:39.442Z,26.95
2023-03-12T22:38:39.619Z,29.56
2023-03-12T22:42:39.849Z,33.56
2023-03-12T22:46:41.013Z,30.27
2023-03-12T22:50:40.145Z,26.29
2023-03-12T22:54:40.371Z,29.28
2023-03-12T22:58:40.537Z,26.45
2023-03-12T23:02:40.741Z,27.98
2023-03-12T23:06:40.828Z,27.74
2023-03-12T23:10:40.992Z,40.87
2023-03-12T23:14:41.173Z,50.42
2023-03-12T23:18:41.244Z,51.91
2023-03-12T23:22:41.456Z,47.19
2023-03-12T23:26:41.677Z,37.65
2023-03-12T23:30:41.905Z,45.14
2023-03-12T23:34:42.110Z,50.10
2023-03-12T23:38:42.311Z,42.91
2023-03-12T23:42:42.476Z,36.79
2023-03-12T23:46:42.537Z,29.90
2023-03-12T23:50:42.618Z,37.31
2023-03-12T23:54:42.646Z,43.74
2023-03-12T23:58:42.720Z,49.16
